Terminal Aerodrome Forecast
Issued by NWS

Home | Current Version | Previous Version | Text Only | Print | Product List | Glossary On
Versions: 1 2 3 4 5 6 7 8 9 10 11 12 13 14 15 16 17 18 19 20 21 22 23 24 25 26 27 28 29 30 31 32 33 34 35 36 37 38 39 40 41 42 43
000
FTUS45 KSLC 220536
TAFENV
TAF
KENV 220536Z 2206/2306 VRB05KT P6SM SCT100
     FM221500 14010KT P6SM SCT100 BKN150
     FM222000 21010G18KT P6SM VCSH SCT080 BKN120
     FM222300 30015G23KT P6SM SCT100 BKN120
     FM230100 33012G20KT P6SM SCT100
      AMD LTD TO CLD VIS AND WIND=

USA.gov is the U.S. government's official web portal to all federal, state and local government web resources and services.